Time;durP1;ratioP1;P1;durP2;ratioP2;P2;SDS_P1;SDS_P2;PMS_P1;PMS_P2;Temp;Humidity;BMP_temperature;BMP_pressure;BME280_temperature;BME280_humidity;BME280_pressure;Samples;Min_cycle;Max_cycle;Signal;HPM_P1;HPM_P2
2024/02/18 00:02:02;;;;;;;1.02;0.38;;;;;;;;;;5093205;28;20388;-63
2024/02/18 00:04:28;;;;;;;0.20;0.20;;;;;;;;;;5093667;28;20020;-64
2024/02/18 00:06:53;;;;;;;0.20;0.20;;;;;;;;;;5093325;28;20085;-64
2024/02/18 00:09:19;;;;;;;0.10;0.10;;;;;;;;;;5093505;28;20024;-64
2024/02/18 00:11:44;;;;;;;0.27;0.27;;;;;;;;;;5093454;28;20096;-64
2024/02/18 00:14:09;;;;;;;0.10;0.10;;;;;;;;;;5092940;28;20323;-63
2024/02/18 00:16:35;;;;;;;0.32;0.32;;;;;;;;;;5093414;28;20276;-63
2024/02/18 00:19:00;;;;;;;0.17;0.17;;;;;;;;;;5093351;28;20016;-64
2024/02/18 00:21:28;;;;;;;0.50;0.50;;;;;;;;;;5093224;28;20518;-64
2024/02/18 00:23:53;;;;;;;0.65;0.65;;;;;;;;;;5093224;28;20240;-64
2024/02/18 00:26:18;;;;;;;0.30;0.30;;;;;;;;;;5075030;28;20030;-64
2024/02/18 00:28:44;;;;;;;0.50;0.50;;;;;;;;;;5092717;28;20066;-64
2024/02/18 00:31:09;;;;;;;0.20;0.20;;;;;;;;;;5080210;28;20111;-64
2024/02/18 00:33:34;;;;;;;0.10;0.10;;;;;;;;;;5072805;28;20458;-64
2024/02/18 00:35:59;;;;;;;0.10;0.10;;;;;;;;;;5072796;28;20031;-64
2024/02/18 00:38:27;;;;;;;0.13;0.13;;;;;;;;;;5072693;28;20334;-65
2024/02/18 00:40:52;;;;;;;0.10;0.10;;;;;;;;;;5072524;28;20629;-65
2024/02/18 00:43:18;;;;;;;0.30;0.30;;;;;;;;;;5072598;28;20020;-65
2024/02/18 00:45:43;;;;;;;0.27;0.27;;;;;;;;;;5080601;28;20053;-65
2024/02/18 00:48:08;;;;;;;1.40;1.30;;;;;;;;;;5092102;28;20262;-65
2024/02/18 00:50:33;;;;;;;0.10;0.10;;;;;;;;;;5092982;28;20264;-65
2024/02/18 00:52:59;;;;;;;0.10;0.10;;;;;;;;;;5092365;28;20073;-65
2024/02/18 00:55:24;;;;;;;0.20;0.20;;;;;;;;;;5092756;28;20739;-65
2024/02/18 00:57:49;;;;;;;0.15;0.15;;;;;;;;;;5092967;28;20248;-65
2024/02/18 01:00:14;;;;;;;1.23;1.10;;;;;;;;;;5092321;28;20459;-65
2024/02/18 01:02:40;;;;;;;0.57;0.57;;;;;;;;;;5088396;28;20024;-65
2024/02/18 01:05:05;;;;;;;0.40;0.40;;;;;;;;;;5077120;28;20032;-65
2024/02/18 01:07:30;;;;;;;0.10;0.10;;;;;;;;;;5077327;28;20090;-65
2024/02/18 01:09:56;;;;;;;0.20;0.20;;;;;;;;;;5083228;28;20296;-65
2024/02/18 01:12:21;;;;;;;3.03;0.77;;;;;;;;;;5072443;28;20423;-65
2024/02/18 01:14:46;;;;;;;3.63;1.60;;;;;;;;;;5087819;28;20477;-65
2024/02/18 01:17:11;;;;;;;0.47;0.47;;;;;;;;;;5092452;28;20299;-65
2024/02/18 01:19:36;;;;;;;0.30;0.30;;;;;;;;;;5091923;28;20253;-65
2024/02/18 01:22:05;;;;;;;1.43;1.33;;;;;;;;;;5092349;28;20020;-65
2024/02/18 01:24:30;;;;;;;0.20;0.20;;;;;;;;;;5092544;28;20321;-65
2024/02/18 01:26:55;;;;;;;0.20;0.20;;;;;;;;;;5076781;28;20107;-65
2024/02/18 01:29:22;;;;;;;2.08;1.88;;;;;;;;;;5055107;28;20358;-64
2024/02/18 01:31:47;;;;;;;0.75;0.52;;;;;;;;;;5072089;28;20021;-65
2024/02/18 01:34:12;;;;;;;1.00;0.75;;;;;;;;;;5071779;28;20111;-65
2024/02/18 01:36:37;;;;;;;0.33;0.33;;;;;;;;;;5072046;28;20028;-65
2024/02/18 01:39:03;;;;;;;0.40;0.40;;;;;;;;;;5079102;28;20285;-65
2024/02/18 01:41:28;;;;;;;0.10;0.10;;;;;;;;;;5088304;28;20335;-65
2024/02/18 01:43:54;;;;;;;1.25;0.65;;;;;;;;;;5091707;28;20388;-65
2024/02/18 01:46:19;;;;;;;0.25;0.25;;;;;;;;;;5090333;28;20388;-65
2024/02/18 01:48:44;;;;;;;6.13;1.10;;;;;;;;;;5079654;28;20027;-64
2024/02/18 01:51:10;;;;;;;1.65;1.55;;;;;;;;;;5092225;28;20048;-64
2024/02/18 01:53:36;;;;;;;0.63;0.63;;;;;;;;;;5072353;28;20021;-64
2024/02/18 01:56:02;;;;;;;0.52;0.52;;;;;;;;;;5077695;28;20511;-64
2024/02/18 01:58:28;;;;;;;0.73;0.73;;;;;;;;;;5076198;28;20357;-64
2024/02/18 02:00:53;;;;;;;0.10;0.10;;;;;;;;;;5095036;28;20032;-64
2024/02/18 02:03:19;;;;;;;0.73;0.73;;;;;;;;;;5091797;28;20133;-64
2024/02/18 02:05:45;;;;;;;0.13;0.13;;;;;;;;;;5077639;28;20076;-64
2024/02/18 02:08:10;;;;;;;0.17;0.17;;;;;;;;;;5075776;28;20078;-64
2024/02/18 02:10:36;;;;;;;0.15;0.15;;;;;;;;;;5087761;28;20388;-64
2024/02/18 02:13:01;;;;;;;0.20;0.20;;;;;;;;;;5076522;28;20024;-64
2024/02/18 02:15:26;;;;;;;0.10;0.10;;;;;;;;;;5076549;28;20020;-64
2024/02/18 02:17:52;;;;;;;0.30;0.30;;;;;;;;;;5076631;28;20062;-64
2024/02/18 02:20:18;;;;;;;0.10;0.10;;;;;;;;;;5076538;28;20028;-64
2024/02/18 02:22:43;;;;;;;0.30;0.30;;;;;;;;;;5076436;28;20104;-64
2024/02/18 02:25:09;;;;;;;3.00;1.50;;;;;;;;;;5076338;28;20337;-64
2024/02/18 02:27:40;;;;;;;0.10;0.10;;;;;;;;;;5083360;28;20284;-64
2024/02/18 02:30:05;;;;;;;0.55;0.55;;;;;;;;;;5096519;28;20111;-64
2024/02/18 02:32:37;;;;;;;2.53;1.48;;;;;;;;;;5096452;28;20059;-64
2024/02/18 02:35:03;;;;;;;0.10;0.10;;;;;;;;;;5087883;28;20367;-64
2024/02/18 02:37:28;;;;;;;0.30;0.30;;;;;;;;;;5075374;28;20040;-64
2024/02/18 02:39:53;;;;;;;0.28;0.28;;;;;;;;;;5077356;28;20056;-64
2024/02/18 02:42:19;;;;;;;1.23;1.13;;;;;;;;;;5094311;28;20024;-64
2024/02/18 02:44:44;;;;;;;0.57;0.57;;;;;;;;;;5087492;28;20642;-64
2024/02/18 02:47:09;;;;;;;1.10;1.00;;;;;;;;;;5082203;28;20206;-64
2024/02/18 02:49:35;;;;;;;1.13;1.02;;;;;;;;;;5088369;28;20309;-64
2024/02/18 02:52:00;;;;;;;0.20;0.20;;;;;;;;;;5076128;28;20021;-64
2024/02/18 02:54:25;;;;;;;0.28;0.28;;;;;;;;;;5077131;28;20103;-64
2024/02/18 02:56:51;;;;;;;0.77;0.77;;;;;;;;;;5075898;28;20381;-64
2024/02/18 02:59:16;;;;;;;0.25;0.25;;;;;;;;;;5082862;28;20039;-65
2024/02/18 03:01:41;;;;;;;1.20;0.38;;;;;;;;;;5094928;28;20379;-65
2024/02/18 03:04:06;;;;;;;0.22;0.22;;;;;;;;;;5091902;28;20028;-65
2024/02/18 03:06:32;;;;;;;0.30;0.30;;;;;;;;;;5076606;28;20543;-65
2024/02/18 03:08:57;;;;;;;0.10;0.10;;;;;;;;;;5076418;28;20660;-65
2024/02/18 03:11:22;;;;;;;2.80;2.40;;;;;;;;;;5078547;28;20581;-65
2024/02/18 03:13:48;;;;;;;0.53;0.40;;;;;;;;;;5092968;28;20662;-65
2024/02/18 03:16:13;;;;;;;0.20;0.20;;;;;;;;;;5086383;28;20249;-65
2024/02/18 03:18:40;;;;;;;0.30;0.30;;;;;;;;;;5082947;28;20025;-65
2024/02/18 03:21:05;;;;;;;0.70;0.70;;;;;;;;;;5086212;28;20012;-65
2024/02/18 03:23:32;;;;;;;0.10;0.10;;;;;;;;;;5075242;28;20376;-65
2024/02/18 03:25:57;;;;;;;0.10;0.10;;;;;;;;;;5091089;28;20263;-65
2024/02/18 03:28:23;;;;;;;0.20;0.20;;;;;;;;;;5093043;28;20028;-64
2024/02/18 03:30:51;;;;;;;0.00;0.00;;;;;;;;;;5060113;28;20020;-65
2024/02/18 03:33:17;;;;;;;0.10;0.10;;;;;;;;;;5076365;28;20052;-65
2024/02/18 03:35:42;;;;;;;0.68;0.68;;;;;;;;;;5075006;28;20021;-65
2024/02/18 03:38:07;;;;;;;0.30;0.30;;;;;;;;;;5074728;28;20037;-65
2024/02/18 03:40:32;;;;;;;0.40;0.40;;;;;;;;;;5076015;28;20258;-65
2024/02/18 03:42:58;;;;;;;1.38;0.38;;;;;;;;;;5074984;28;20025;-65
2024/02/18 03:45:23;;;;;;;0.60;0.60;;;;;;;;;;5092144;28;20396;-65
2024/02/18 03:47:48;;;;;;;1.80;1.23;;;;;;;;;;5082293;28;20252;-65
2024/02/18 03:50:14;;;;;;;0.37;0.37;;;;;;;;;;5082225;28;20340;-65
2024/02/18 03:52:42;;;;;;;0.10;0.10;;;;;;;;;;5094769;28;20256;-65
2024/02/18 03:55:09;;;;;;;0.30;0.30;;;;;;;;;;5079348;28;20024;-65
2024/02/18 03:57:34;;;;;;;0.45;0.45;;;;;;;;;;5074511;28;20048;-65
2024/02/18 04:00:00;;;;;;;0.90;0.90;;;;;;;;;;5074481;28;20055;-65
2024/02/18 04:02:25;;;;;;;0.10;0.10;;;;;;;;;;5074500;28;20344;-65
2024/02/18 04:04:50;;;;;;;0.60;0.60;;;;;;;;;;5075718;28;20579;-65
2024/02/18 04:07:15;;;;;;;3.50;2.53;;;;;;;;;;5074397;28;20717;-65
2024/02/18 04:09:40;;;;;;;0.20;0.20;;;;;;;;;;5086572;28;20020;-64
2024/02/18 04:12:06;;;;;;;0.93;0.77;;;;;;;;;;5056209;28;20345;-65
2024/02/18 04:14:31;;;;;;;2.80;2.30;;;;;;;;;;5081105;28;20340;-65
2024/02/18 04:16:57;;;;;;;0.17;0.17;;;;;;;;;;5094527;28;20028;-65
2024/02/18 04:19:22;;;;;;;0.10;0.10;;;;;;;;;;5094652;28;20280;-65
2024/02/18 04:21:47;;;;;;;0.20;0.20;;;;;;;;;;5094419;28;20023;-64
2024/02/18 04:24:12;;;;;;;1.10;1.10;;;;;;;;;;5094406;28;20264;-65
2024/02/18 04:26:37;;;;;;;0.40;0.40;;;;;;;;;;5088000;28;20257;-65
2024/02/18 04:29:03;;;;;;;0.10;0.10;;;;;;;;;;5074239;28;20017;-65
2024/02/18 04:31:28;;;;;;;0.13;0.13;;;;;;;;;;5074030;28;20096;-65
2024/02/18 04:33:53;;;;;;;0.10;0.10;;;;;;;;;;5074185;28;20241;-64
2024/02/18 04:36:18;;;;;;;1.57;1.37;;;;;;;;;;5073965;28;20245;-65
2024/02/18 04:38:47;;;;;;;0.10;0.10;;;;;;;;;;5073600;28;20277;-65
2024/02/18 04:41:14;;;;;;;0.10;0.10;;;;;;;;;;5055837;28;20033;-65
2024/02/18 04:43:39;;;;;;;0.10;0.10;;;;;;;;;;5074432;28;20024;-65
2024/02/18 04:46:04;;;;;;;0.15;0.15;;;;;;;;;;5091646;28;20029;-65
2024/02/18 04:48:30;;;;;;;0.57;0.53;;;;;;;;;;5091091;28;20012;-65
2024/02/18 04:50:55;;;;;;;0.10;0.10;;;;;;;;;;5083185;28;20323;-65
2024/02/18 04:53:20;;;;;;;0.20;0.20;;;;;;;;;;5093870;28;20264;-65
2024/02/18 04:55:45;;;;;;;0.20;0.20;;;;;;;;;;5085633;28;20260;-65
2024/02/18 04:58:10;;;;;;;0.20;0.20;;;;;;;;;;5092832;28;20092;-65
2024/02/18 05:00:36;;;;;;;0.20;0.20;;;;;;;;;;5088874;28;20271;-64
2024/02/18 05:03:01;;;;;;;0.20;0.20;;;;;;;;;;5090058;28;20345;-65
2024/02/18 05:05:26;;;;;;;0.10;0.10;;;;;;;;;;5077680;28;20341;-65
2024/02/18 05:07:52;;;;;;;0.10;0.10;;;;;;;;;;5092954;28;20310;-65
2024/02/18 05:10:18;;;;;;;0.10;0.10;;;;;;;;;;5065199;28;20629;-65
2024/02/18 05:12:43;;;;;;;0.30;0.30;;;;;;;;;;5078709;28;20039;-65
2024/02/18 05:15:09;;;;;;;0.10;0.10;;;;;;;;;;5074593;28;20012;-65
2024/02/18 05:17:34;;;;;;;0.30;0.30;;;;;;;;;;5083371;28;20284;-64
2024/02/18 05:20:00;;;;;;;0.10;0.10;;;;;;;;;;5074787;28;20249;-65
2024/02/18 05:22:25;;;;;;;2.20;1.13;;;;;;;;;;5084191;28;20108;-65
2024/02/18 05:24:50;;;;;;;0.10;0.10;;;;;;;;;;5073218;28;20021;-65
2024/02/18 05:27:16;;;;;;;0.10;0.10;;;;;;;;;;5073036;28;20272;-65
2024/02/18 05:29:42;;;;;;;0.17;0.17;;;;;;;;;;5073234;28;20035;-65
2024/02/18 05:32:07;;;;;;;1.30;0.93;;;;;;;;;;5074167;28;20392;-65
2024/02/18 05:34:32;;;;;;;0.95;0.75;;;;;;;;;;5072644;28;20725;-65
2024/02/18 05:36:58;;;;;;;0.52;0.52;;;;;;;;;;5073740;28;20536;-65
2024/02/18 05:39:23;;;;;;;1.27;1.17;;;;;;;;;;5072507;28;20500;-65
2024/02/18 05:41:48;;;;;;;0.75;0.75;;;;;;;;;;5089626;28;20740;-65
2024/02/18 05:44:13;;;;;;;0.50;0.50;;;;;;;;;;5089282;28;20031;-65
2024/02/18 05:46:39;;;;;;;1.03;0.90;;;;;;;;;;5084028;28;20278;-65
2024/02/18 05:49:04;;;;;;;0.60;0.60;;;;;;;;;;5090700;28;20256;-65
2024/02/18 05:51:31;;;;;;;0.35;0.35;;;;;;;;;;5083265;28;20025;-65
2024/02/18 05:53:56;;;;;;;0.20;0.20;;;;;;;;;;5090368;28;20353;-65
2024/02/18 05:56:22;;;;;;;0.10;0.10;;;;;;;;;;5091992;28;20023;-65
2024/02/18 05:58:47;;;;;;;0.20;0.20;;;;;;;;;;5092709;28;20024;-65
2024/02/18 06:01:12;;;;;;;0.15;0.15;;;;;;;;;;5091052;28;20252;-64
2024/02/18 06:03:38;;;;;;;0.30;0.30;;;;;;;;;;5076319;28;20040;-65
2024/02/18 06:06:03;;;;;;;0.20;0.20;;;;;;;;;;5077161;28;20031;-65
2024/02/18 06:08:28;;;;;;;0.63;0.63;;;;;;;;;;5092352;28;20055;-65
2024/02/18 06:10:54;;;;;;;0.17;0.17;;;;;;;;;;5082647;28;20519;-65
2024/02/18 06:13:20;;;;;;;0.10;0.10;;;;;;;;;;5090356;28;20255;-65
2024/02/18 06:15:45;;;;;;;0.20;0.20;;;;;;;;;;5089190;28;20021;-65
2024/02/18 06:18:11;;;;;;;2.43;0.57;;;;;;;;;;5072737;28;20422;-65
2024/02/18 06:20:36;;;;;;;0.47;0.47;;;;;;;;;;5072946;28;20323;-64
2024/02/18 06:23:01;;;;;;;0.50;0.50;;;;;;;;;;5072734;28;20074;-65
2024/02/18 06:25:26;;;;;;;3.53;1.70;;;;;;;;;;5072722;28;20878;-65
2024/02/18 06:27:52;;;;;;;0.40;0.40;;;;;;;;;;5076070;28;20596;-64
2024/02/18 06:30:17;;;;;;;0.10;0.10;;;;;;;;;;5092669;28;20020;-64
2024/02/18 06:32:42;;;;;;;0.32;0.32;;;;;;;;;;5092822;28;20073;-64
2024/02/18 06:35:08;;;;;;;0.10;0.10;;;;;;;;;;5092739;28;20013;-64
2024/02/18 06:37:33;;;;;;;0.15;0.15;;;;;;;;;;5092731;28;20351;-64
2024/02/18 06:39:58;;;;;;;0.20;0.20;;;;;;;;;;5092982;28;20483;-64
2024/02/18 06:42:24;;;;;;;0.10;0.10;;;;;;;;;;5092748;28;20023;-64
2024/02/18 06:44:49;;;;;;;0.23;0.23;;;;;;;;;;5088116;28;20016;-64
2024/02/18 06:47:14;;;;;;;0.20;0.20;;;;;;;;;;5085612;28;20652;-64
2024/02/18 06:49:39;;;;;;;0.40;0.40;;;;;;;;;;5076961;28;20809;-64
2024/02/18 06:52:05;;;;;;;0.30;0.30;;;;;;;;;;5088140;28;20284;-64
2024/02/18 06:54:30;;;;;;;0.95;0.60;;;;;;;;;;5075939;28;20031;-64
2024/02/18 06:56:55;;;;;;;0.57;0.57;;;;;;;;;;5076012;28;20518;-64
2024/02/18 06:59:20;;;;;;;0.83;0.83;;;;;;;;;;5079555;28;20016;-64
2024/02/18 07:01:46;;;;;;;0.73;0.73;;;;;;;;;;5078491;28;20264;-64
2024/02/18 07:04:12;;;;;;;0.38;0.38;;;;;;;;;;5089820;28;20017;-64
2024/02/18 07:06:37;;;;;;;0.10;0.10;;;;;;;;;;5085368;28;20032;-64
2024/02/18 07:09:02;;;;;;;0.50;0.50;;;;;;;;;;5079772;28;20027;-64
2024/02/18 07:11:28;;;;;;;0.10;0.10;;;;;;;;;;5078059;28;20052;-64
2024/02/18 07:13:53;;;;;;;0.20;0.20;;;;;;;;;;5079972;28;20016;-64
2024/02/18 07:16:19;;;;;;;0.63;0.60;;;;;;;;;;5078645;28;20242;-64
2024/02/18 07:18:44;;;;;;;0.10;0.10;;;;;;;;;;5083767;28;20482;-64
2024/02/18 07:21:11;;;;;;;0.15;0.15;;;;;;;;;;5077077;28;20057;-64
2024/02/18 07:23:36;;;;;;;0.28;0.28;;;;;;;;;;5084648;28;20023;-64
2024/02/18 07:26:01;;;;;;;0.10;0.10;;;;;;;;;;5088508;28;20024;-64
2024/02/18 07:28:26;;;;;;;0.40;0.40;;;;;;;;;;5082974;28;20283;-64
2024/02/18 07:30:52;;;;;;;0.10;0.10;;;;;;;;;;5078812;28;20016;-64
2024/02/18 07:33:17;;;;;;;2.17;1.67;;;;;;;;;;5080200;28;20262;-64
2024/02/18 07:35:42;;;;;;;0.93;0.93;;;;;;;;;;5082500;28;20602;-64
2024/02/18 07:38:09;;;;;;;0.10;0.10;;;;;;;;;;5074345;28;20048;-64
2024/02/18 07:40:34;;;;;;;0.15;0.15;;;;;;;;;;5076959;28;20123;-64
2024/02/18 07:42:59;;;;;;;1.75;1.02;;;;;;;;;;5082947;28;20032;-64
2024/02/18 07:45:24;;;;;;;0.73;0.67;;;;;;;;;;5077334;28;20016;-64
2024/02/18 07:47:50;;;;;;;0.20;0.20;;;;;;;;;;5074597;28;20511;-64
2024/02/18 07:50:15;;;;;;;4.03;3.63;;;;;;;;;;5080240;28;20043;-64
2024/02/18 07:52:40;;;;;;;3.72;3.45;;;;;;;;;;5085555;28;20260;-63
2024/02/18 07:55:05;;;;;;;4.07;2.33;;;;;;;;;;5075894;28;20016;-75
2024/02/18 07:57:31;;;;;;;3.15;2.95;;;;;;;;;;5073184;28;20254;-64
2024/02/18 07:59:56;;;;;;;1.90;1.80;;;;;;;;;;5081836;28;20025;-65
2024/02/18 08:02:22;;;;;;;0.65;0.65;;;;;;;;;;5080903;28;20257;-65
2024/02/18 08:04:47;;;;;;;4.40;3.97;;;;;;;;;;5076302;28;20045;-65
2024/02/18 08:07:12;;;;;;;5.53;3.80;;;;;;;;;;5081726;28;20384;-65
2024/02/18 08:09:38;;;;;;;4.10;3.23;;;;;;;;;;5073454;28;20606;-65
2024/02/18 08:12:03;;;;;;;4.13;2.80;;;;;;;;;;5082330;28;20256;-65
2024/02/18 08:14:28;;;;;;;7.97;5.90;;;;;;;;;;5094143;28;20264;-65
2024/02/18 08:16:55;;;;;;;4.23;3.80;;;;;;;;;;5082185;28;20368;-65
2024/02/18 08:19:20;;;;;;;1.27;1.25;;;;;;;;;;5073699;28;20574;-65
2024/02/18 08:21:45;;;;;;;4.57;2.33;;;;;;;;;;5073220;28;20039;-65
2024/02/18 08:24:10;;;;;;;4.53;2.33;;;;;;;;;;5073707;28;20028;-65
2024/02/18 08:26:36;;;;;;;0.20;0.20;;;;;;;;;;5073497;28;20249;-65
2024/02/18 08:29:01;;;;;;;4.97;2.83;;;;;;;;;;5078471;28;20253;-65
2024/02/18 08:31:26;;;;;;;5.30;3.60;;;;;;;;;;5077856;28;20051;-65
2024/02/18 08:33:51;;;;;;;13.55;2.75;;;;;;;;;;5080060;28;20617;-65
2024/02/18 08:36:17;;;;;;;3.65;3.03;;;;;;;;;;5072834;28;20051;-65
2024/02/18 08:38:42;;;;;;;2.17;1.98;;;;;;;;;;5072960;28;20519;-65
2024/02/18 08:41:08;;;;;;;2.15;1.45;;;;;;;;;;5074112;28;20106;-65
2024/02/18 08:43:33;;;;;;;1.85;1.70;;;;;;;;;;5073138;28;20488;-65
2024/02/18 08:45:59;;;;;;;1.00;1.00;;;;;;;;;;5073301;28;20597;-65
2024/02/18 08:48:24;;;;;;;3.90;2.65;;;;;;;;;;5072958;28;20031;-65
2024/02/18 08:50:49;;;;;;;5.77;5.17;;;;;;;;;;5071920;28;20024;-65
2024/02/18 08:53:15;;;;;;;2.57;2.40;;;;;;;;;;5080931;28;20262;-65
2024/02/18 08:55:40;;;;;;;1.85;1.75;;;;;;;;;;5083296;28;20020;-65
2024/02/18 08:58:05;;;;;;;1.30;1.20;;;;;;;;;;5072015;28;20017;-65
2024/02/18 09:00:30;;;;;;;0.60;0.60;;;;;;;;;;5073607;28;20024;-65
2024/02/18 09:02:55;;;;;;;2.53;2.03;;;;;;;;;;5091660;28;20256;-65
2024/02/18 09:05:22;;;;;;;1.17;1.07;;;;;;;;;;5093785;28;20245;-65
2024/02/18 09:07:48;;;;;;;1.17;1.00;;;;;;;;;;5093165;28;20028;-65
2024/02/18 09:10:13;;;;;;;0.45;0.45;;;;;;;;;;5093459;28;20023;-65
2024/02/18 09:12:38;;;;;;;1.30;1.07;;;;;;;;;;5093555;28;20020;-65
2024/02/18 09:15:03;;;;;;;0.60;0.40;;;;;;;;;;5093581;28;20252;-65
2024/02/18 09:17:29;;;;;;;2.28;1.80;;;;;;;;;;5093584;28;20237;-65
2024/02/18 09:19:54;;;;;;;0.80;0.80;;;;;;;;;;5093585;28;20581;-65
2024/02/18 09:22:19;;;;;;;1.20;1.15;;;;;;;;;;5093584;28;20716;-65
2024/02/18 09:24:44;;;;;;;0.83;0.77;;;;;;;;;;5093441;28;20042;-65
2024/02/18 09:27:10;;;;;;;3.53;1.73;;;;;;;;;;5093445;28;20747;-65
2024/02/18 09:29:36;;;;;;;0.13;0.13;;;;;;;;;;5093359;28;20264;-65
2024/02/18 09:32:01;;;;;;;0.65;0.45;;;;;;;;;;5093303;28;20012;-65
2024/02/18 09:34:26;;;;;;;0.00;0.00;;;;;;;;;;5093430;28;20012;-65
2024/02/18 09:36:52;;;;;;;0.35;0.35;;;;;;;;;;5093615;28;20016;-65
2024/02/18 09:39:17;;;;;;;0.70;0.70;;;;;;;;;;5093073;28;20048;-65
2024/02/18 09:41:44;;;;;;;1.90;1.07;;;;;;;;;;5093302;28;20187;-65
2024/02/18 09:44:09;;;;;;;0.93;0.28;;;;;;;;;;5093081;28;20070;-65
2024/02/18 09:46:36;;;;;;;0.40;0.40;;;;;;;;;;5093314;28;20414;-65
2024/02/18 09:49:02;;;;;;;0.25;0.25;;;;;;;;;;5093135;28;20305;-65
2024/02/18 09:51:27;;;;;;;0.47;0.47;;;;;;;;;;5074909;28;20024;-65
2024/02/18 09:53:54;;;;;;;0.57;0.47;;;;;;;;;;5093192;28;20027;-65
2024/02/18 09:56:20;;;;;;;0.30;0.30;;;;;;;;;;5093109;28;20241;-65
2024/02/18 09:58:45;;;;;;;0.10;0.10;;;;;;;;;;5093467;28;20022;-65
2024/02/18 10:01:12;;;;;;;0.38;0.15;;;;;;;;;;5093157;28;20030;-65
2024/02/18 10:03:37;;;;;;;0.80;0.75;;;;;;;;;;5093125;28;20065;-65
2024/02/18 10:06:03;;;;;;;0.30;0.30;;;;;;;;;;5093086;28;20028;-65
2024/02/18 10:08:28;;;;;;;0.13;0.13;;;;;;;;;;5093096;28;20256;-65
2024/02/18 10:10:54;;;;;;;0.17;0.17;;;;;;;;;;5093044;28;20418;-65
2024/02/18 10:13:23;;;;;;;0.20;0.20;;;;;;;;;;5093072;28;20020;-65
2024/02/18 10:15:51;;;;;;;0.17;0.17;;;;;;;;;;5093247;28;20414;-65
2024/02/18 10:18:19;;;;;;;0.38;0.38;;;;;;;;;;5092908;28;20028;-65
2024/02/18 10:20:46;;;;;;;0.10;0.10;;;;;;;;;;5095845;28;20028;-65
2024/02/18 10:23:11;;;;;;;1.48;1.38;;;;;;;;;;5096809;28;20020;-65
2024/02/18 10:25:36;;;;;;;0.10;0.10;;;;;;;;;;5096759;28;20023;-65
2024/02/18 10:28:04;;;;;;;0.10;0.10;;;;;;;;;;5096726;28;20410;-65
2024/02/18 10:30:29;;;;;;;0.20;0.20;;;;;;;;;;5096843;28;20755;-65
2024/02/18 10:32:55;;;;;;;0.38;0.38;;;;;;;;;;5096817;28;20016;-65
2024/02/18 10:35:20;;;;;;;0.30;0.30;;;;;;;;;;5096616;28;20016;-65
2024/02/18 10:37:48;;;;;;;0.75;0.50;;;;;;;;;;5096496;28;20056;-65
2024/02/18 10:40:22;;;;;;;1.65;0.75;;;;;;;;;;5096486;28;20020;-65
2024/02/18 10:42:51;;;;;;;0.20;0.20;;;;;;;;;;5096406;28;20024;-65
2024/02/18 10:45:17;;;;;;;0.63;0.22;;;;;;;;;;5096680;28;20024;-65
2024/02/18 10:47:44;;;;;;;0.10;0.10;;;;;;;;;;5096294;28;20034;-65
2024/02/18 10:50:11;;;;;;;0.57;0.57;;;;;;;;;;5096223;28;20016;-65
2024/02/18 10:52:37;;;;;;;0.93;0.88;;;;;;;;;;5096500;28;20472;-65
2024/02/18 10:55:10;;;;;;;0.08;0.08;;;;;;;;;;5096450;28;20031;-65
2024/02/18 10:57:39;;;;;;;0.15;0.15;;;;;;;;;;5096082;28;20012;-65
2024/02/18 11:00:07;;;;;;;0.10;0.10;;;;;;;;;;5096373;28;20388;-65
2024/02/18 11:02:49;;;;;;;0.13;0.13;;;;;;;;;;5096253;28;20024;-65
2024/02/18 11:05:14;;;;;;;1.40;1.33;;;;;;;;;;5096277;28;20516;-65
2024/02/18 11:07:40;;;;;;;0.20;0.20;;;;;;;;;;5096046;28;20103;-66
2024/02/18 11:10:06;;;;;;;0.20;0.20;;;;;;;;;;5095833;28;20388;-66
2024/02/18 11:12:33;;;;;;;0.17;0.17;;;;;;;;;;5095682;28;20012;-66
2024/02/18 11:14:59;;;;;;;0.10;0.10;;;;;;;;;;5096083;28;20388;-66
2024/02/18 11:17:24;;;;;;;0.00;0.00;;;;;;;;;;5095868;28;20108;-66
2024/02/18 11:19:50;;;;;;;0.13;0.13;;;;;;;;;;5095560;28;20095;-66
2024/02/18 11:22:15;;;;;;;0.00;0.00;;;;;;;;;;5095654;28;20024;-66
2024/02/18 11:24:41;;;;;;;0.28;0.28;;;;;;;;;;5095629;28;20020;-66
2024/02/18 11:27:06;;;;;;;0.13;0.13;;;;;;;;;;5095464;28;20016;-66
2024/02/18 11:29:33;;;;;;;0.00;0.00;;;;;;;;;;5095451;28;20028;-66
2024/02/18 11:31:58;;;;;;;0.08;0.08;;;;;;;;;;5095058;28;20299;-66
2024/02/18 11:34:23;;;;;;;0.23;0.23;;;;;;;;;;5095510;28;20508;-66
2024/02/18 11:36:48;;;;;;;0.27;0.27;;;;;;;;;;5095699;28;20731;-66
2024/02/18 11:39:14;;;;;;;0.20;0.20;;;;;;;;;;5095174;28;20625;-66
2024/02/18 11:41:39;;;;;;;0.10;0.10;;;;;;;;;;5095546;28;20733;-66
2024/02/18 11:44:09;;;;;;;0.30;0.30;;;;;;;;;;5095263;28;20020;-65
2024/02/18 11:46:37;;;;;;;0.00;0.00;;;;;;;;;;5095476;28;20097;-65
2024/02/18 11:49:02;;;;;;;0.00;0.00;;;;;;;;;;5095362;28;20073;-66
2024/02/18 11:51:28;;;;;;;0.20;0.20;;;;;;;;;;5095064;28;20024;-66
2024/02/18 11:53:54;;;;;;;0.10;0.10;;;;;;;;;;5095312;28;20245;-65
2024/02/18 11:56:19;;;;;;;0.10;0.10;;;;;;;;;;5095162;28;20127;-65
2024/02/18 11:58:47;;;;;;;0.03;0.03;;;;;;;;;;5095244;28;20052;-65
2024/02/18 12:01:15;;;;;;;0.10;0.10;;;;;;;;;;5094936;28;20012;-65
2024/02/18 12:03:40;;;;;;;0.00;0.00;;;;;;;;;;5094785;28;20020;-65
2024/02/18 12:06:06;;;;;;;0.00;0.00;;;;;;;;;;5094865;28;20036;-65
2024/02/18 12:08:31;;;;;;;0.10;0.10;;;;;;;;;;5095083;28;20020;-65
2024/02/18 12:11:00;;;;;;;0.15;0.15;;;;;;;;;;5094647;28;20020;-65
2024/02/18 12:13:26;;;;;;;0.20;0.20;;;;;;;;;;5094585;28;20091;-66
2024/02/18 12:15:51;;;;;;;1.95;0.50;;;;;;;;;;5094873;28;20090;-66
2024/02/18 12:18:17;;;;;;;0.77;0.77;;;;;;;;;;5077370;28;20075;-66
2024/02/18 12:20:47;;;;;;;0.20;0.20;;;;;;;;;;5074190;28;20685;-74
2024/02/18 12:23:13;;;;;;;0.30;0.30;;;;;;;;;;5074418;28;20426;-76
2024/02/18 12:25:38;;;;;;;0.10;0.10;;;;;;;;;;5075149;28;20037;-77
2024/02/18 12:28:03;;;;;;;0.15;0.15;;;;;;;;;;5087725;28;20383;-76
2024/02/18 12:30:29;;;;;;;0.00;0.00;;;;;;;;;;5093664;28;20020;-66
2024/02/18 12:32:54;;;;;;;0.17;0.17;;;;;;;;;;5091367;28;20024;-66
2024/02/18 12:35:20;;;;;;;3.20;0.50;;;;;;;;;;5071578;28;20024;-66
2024/02/18 12:37:45;;;;;;;0.03;0.03;;;;;;;;;;5085870;28;20039;-66
2024/02/18 12:40:13;;;;;;;0.40;0.40;;;;;;;;;;5081011;28;20055;-66
2024/02/18 12:42:39;;;;;;;0.15;0.15;;;;;;;;;;5085624;28;20407;-66
2024/02/18 12:45:04;;;;;;;0.57;0.57;;;;;;;;;;5080162;28;20020;-65
2024/02/18 12:47:32;;;;;;;0.30;0.30;;;;;;;;;;5072542;28;20032;-65
2024/02/18 12:50:05;;;;;;;0.08;0.08;;;;;;;;;;5072230;28;20476;-65
2024/02/18 12:52:31;;;;;;;0.00;0.00;;;;;;;;;;5073270;28;20074;-66
2024/02/18 12:55:03;;;;;;;0.00;0.00;;;;;;;;;;5072866;28;20361;-66
2024/02/18 12:57:28;;;;;;;0.40;0.40;;;;;;;;;;5072658;28;20271;-66
2024/02/18 12:59:54;;;;;;;0.00;0.00;;;;;;;;;;5072958;28;20099;-66
2024/02/18 13:02:19;;;;;;;0.05;0.05;;;;;;;;;;5073225;28;20253;-66
2024/02/18 13:04:51;;;;;;;0.10;0.10;;;;;;;;;;5072604;28;20029;-66
2024/02/18 13:07:20;;;;;;;0.10;0.10;;;;;;;;;;5074943;28;20028;-66
2024/02/18 13:09:45;;;;;;;0.43;0.35;;;;;;;;;;5072887;28;20059;-66
2024/02/18 13:12:10;;;;;;;0.20;0.20;;;;;;;;;;5072840;28;20023;-66
2024/02/18 13:14:37;;;;;;;0.10;0.10;;;;;;;;;;5072504;28;20040;-66
2024/02/18 13:17:03;;;;;;;0.55;0.43;;;;;;;;;;5072809;28;20032;-65
2024/02/18 13:19:28;;;;;;;0.00;0.00;;;;;;;;;;5071820;28;20028;-65
2024/02/18 13:21:53;;;;;;;0.03;0.03;;;;;;;;;;5088217;28;20004;-65
2024/02/18 13:24:19;;;;;;;0.10;0.10;;;;;;;;;;5081533;28;20262;-65
2024/02/18 13:26:44;;;;;;;0.00;0.00;;;;;;;;;;5072832;28;20399;-66
2024/02/18 13:29:10;;;;;;;0.00;0.00;;;;;;;;;;5072808;28;20016;-66
2024/02/18 13:31:35;;;;;;;0.28;0.28;;;;;;;;;;5072500;28;20449;-66
2024/02/18 13:34:00;;;;;;;0.53;0.53;;;;;;;;;;5072106;28;20048;-66
2024/02/18 13:36:26;;;;;;;0.38;0.38;;;;;;;;;;5085155;28;20257;-66
2024/02/18 13:38:51;;;;;;;0.20;0.20;;;;;;;;;;5092089;28;20053;-66
2024/02/18 13:41:16;;;;;;;0.00;0.00;;;;;;;;;;5077040;28;20092;-66
2024/02/18 13:43:41;;;;;;;0.40;0.40;;;;;;;;;;5072265;28;20292;-66
2024/02/18 13:46:07;;;;;;;0.10;0.10;;;;;;;;;;5072359;28;20356;-66
2024/02/18 13:48:34;;;;;;;0.00;0.00;;;;;;;;;;5072319;28;20037;-66
2024/02/18 13:50:59;;;;;;;0.20;0.20;;;;;;;;;;5082686;28;20028;-66
2024/02/18 13:53:24;;;;;;;0.10;0.10;;;;;;;;;;5091955;28;20084;-66
2024/02/18 13:55:50;;;;;;;0.33;0.33;;;;;;;;;;5093621;28;20142;-66
2024/02/18 13:58:15;;;;;;;0.13;0.13;;;;;;;;;;5076612;28;20260;-66
2024/02/18 14:00:40;;;;;;;0.10;0.10;;;;;;;;;;5076378;28;20052;-66
2024/02/18 14:03:05;;;;;;;0.10;0.10;;;;;;;;;;5076388;28;20703;-66
2024/02/18 14:05:31;;;;;;;0.10;0.10;;;;;;;;;;5075668;28;20267;-66
2024/02/18 14:07:56;;;;;;;0.20;0.20;;;;;;;;;;5076271;28;20060;-66
2024/02/18 14:10:22;;;;;;;0.00;0.00;;;;;;;;;;5076358;28;20044;-66
2024/02/18 14:12:47;;;;;;;0.22;0.22;;;;;;;;;;5076399;28;20025;-66
2024/02/18 14:15:12;;;;;;;0.10;0.10;;;;;;;;;;5075991;28;20365;-66
2024/02/18 14:17:43;;;;;;;0.50;0.40;;;;;;;;;;5076098;28;20016;-66
2024/02/18 14:20:12;;;;;;;0.28;0.28;;;;;;;;;;5082276;28;20523;-66
2024/02/18 14:22:37;;;;;;;0.28;0.28;;;;;;;;;;5095163;28;20058;-66
2024/02/18 14:25:04;;;;;;;0.50;0.50;;;;;;;;;;5094250;28;20437;-66
2024/02/18 14:27:29;;;;;;;0.08;0.08;;;;;;;;;;5087476;28;20032;-66
2024/02/18 14:29:57;;;;;;;0.00;0.00;;;;;;;;;;5075778;28;20107;-66
2024/02/18 14:32:22;;;;;;;0.32;0.32;;;;;;;;;;5075772;28;20520;-66
2024/02/18 14:34:52;;;;;;;0.00;0.00;;;;;;;;;;5074926;28;20111;-66